createdAt,value
2023-06-29T00:01:55.514Z,98499.89
2023-06-29T00:04:37.634Z,98503.53
2023-06-29T00:07:20.195Z,98492.08
2023-06-29T00:09:54.252Z,98483.77
2023-06-29T00:12:26.807Z,98481.11
2023-06-29T00:15:10.882Z,98482.31
2023-06-29T00:17:56.452Z,98471.16
2023-06-29T00:20:29.870Z,98472.64
2023-06-29T00:23:02.405Z,98475.66
2023-06-29T00:25:48.434Z,98470.72
2023-06-29T00:28:32.869Z,98469.42
2023-06-29T00:31:05.993Z,98467.23
2023-06-29T00:33:49.758Z,98465.77
2023-06-29T00:36:22.470Z,98465.72
2023-06-29T00:39:06.765Z,98462.61
2023-06-29T00:41:39.378Z,98462.55
2023-06-29T00:44:26.363Z,98464.56
2023-06-29T00:46:59.176Z,98460.75
2023-06-29T00:49:41.942Z,98459.11
2023-06-29T00:52:14.572Z,98456.41
2023-06-29T00:54:59.845Z,98454.95
2023-06-29T00:57:33.844Z,98450.30
2023-06-29T01:00:16.771Z,98452.30
2023-06-29T01:02:50.259Z,98441.50
2023-06-29T01:05:35.187Z,98446.00
2023-06-29T01:08:16.606Z,98451.11
2023-06-29T01:11:00.695Z,98439.04
2023-06-29T01:13:34.802Z,98439.98
2023-06-29T01:16:38.463Z,98432.23
2023-06-29T01:19:14.032Z,98432.19
2023-06-29T01:22:11.457Z,98433.38
2023-06-29T01:24:44.127Z,98425.08
2023-06-29T01:27:28.504Z,98430.72
2023-06-29T01:30:14.749Z,98431.09
2023-06-29T01:32:47.208Z,98423.50
2023-06-29T01:35:32.443Z,98425.63
2023-06-29T01:38:08.699Z,98419.99
2023-06-29T01:40:55.974Z,98424.19
2023-06-29T01:43:30.969Z,98415.68
2023-06-29T01:46:04.134Z,98429.60
2023-06-29T01:48:48.663Z,98420.17
2023-06-29T01:51:21.807Z,98404.23
2023-06-29T01:54:05.795Z,98409.03
2023-06-29T01:56:38.314Z,98405.38
2023-06-29T01:59:20.520Z,98417.13
2023-06-29T02:02:06.262Z,98410.17
2023-06-29T02:04:48.823Z,98407.52
2023-06-29T02:07:21.293Z,98401.44
2023-06-29T02:10:04.460Z,98398.95
2023-06-29T02:12:37.195Z,98400.80
2023-06-29T02:15:20.065Z,98408.12
2023-06-29T02:17:52.808Z,98404.15
2023-06-29T02:20:36.556Z,98401.67
2023-06-29T02:23:09.438Z,98408.16
2023-06-29T02:25:51.976Z,98405.67
2023-06-29T02:28:24.555Z,98402.70
2023-06-29T02:31:09.819Z,98407.98
2023-06-29T02:33:43.431Z,98399.56
2023-06-29T02:36:16.726Z,98412.16
2023-06-29T02:39:00.990Z,98416.09
2023-06-29T02:41:33.686Z,98409.81
2023-06-29T02:44:16.328Z,98415.44
2023-06-29T02:47:00.693Z,98417.73
2023-06-29T02:49:34.841Z,98423.30
2023-06-29T02:52:17.817Z,98425.48
2023-06-29T02:55:01.048Z,98419.84
2023-06-29T02:57:35.013Z,98416.92
2023-06-29T03:00:18.433Z,98429.75
2023-06-29T03:02:51.675Z,98423.80
2023-06-29T03:05:36.064Z,98432.61
2023-06-29T03:08:20.261Z,98432.45
2023-06-29T03:10:53.263Z,98434.95
2023-06-29T03:13:37.533Z,98452.18
2023-06-29T03:16:19.970Z,98442.68
2023-06-29T03:18:52.512Z,98444.55
2023-06-29T03:21:35.485Z,98450.03
2023-06-29T03:24:17.673Z,98455.13
2023-06-29T03:26:53.664Z,98460.55
2023-06-29T03:29:37.309Z,98465.53
2023-06-29T03:32:11.084Z,98461.34
2023-06-29T03:34:53.469Z,98460.53
2023-06-29T03:37:39.237Z,98466.26
2023-06-29T03:40:21.744Z,98466.46
2023-06-29T03:42:54.547Z,98462.88
2023-06-29T03:45:28.031Z,98470.75
2023-06-29T03:48:02.701Z,98453.55
2023-06-29T03:50:36.482Z,98459.98
2023-06-29T03:53:19.239Z,98464.31
2023-06-29T03:55:52.254Z,98464.23
2023-06-29T03:58:37.021Z,98472.69
2023-06-29T04:01:10.414Z,98466.47
2023-06-29T04:03:56.289Z,98473.03
2023-06-29T04:06:28.813Z,98469.45
2023-06-29T04:09:13.422Z,98473.34
2023-06-29T04:11:47.728Z,98470.93
2023-06-29T04:14:31.589Z,98477.72
2023-06-29T04:17:04.632Z,98468.19
2023-06-29T04:19:47.237Z,98467.98
2023-06-29T04:22:30.355Z,98465.72
2023-06-29T04:25:02.857Z,98460.38
2023-06-29T04:27:45.731Z,98463.06
2023-06-29T04:30:19.499Z,98453.39
2023-06-29T04:33:04.609Z,98463.25
2023-06-29T04:35:48.158Z,98459.42
2023-06-29T04:38:22.780Z,98456.54
2023-06-29T04:41:05.974Z,98459.05
2023-06-29T04:43:52.072Z,98472.35
2023-06-29T04:46:41.122Z,98467.88
2023-06-29T04:49:27.320Z,98466.86
2023-06-29T04:52:13.732Z,98466.53
2023-06-29T04:54:46.766Z,98471.93
2023-06-29T04:57:32.698Z,98471.88
2023-06-29T05:00:09.425Z,98475.82
2023-06-29T05:02:54.234Z,98479.20
2023-06-29T05:05:27.072Z,98475.84
2023-06-29T05:08:09.844Z,98477.70
2023-06-29T05:10:54.183Z,98476.04
2023-06-29T05:13:37.619Z,98480.35
2023-06-29T05:16:10.676Z,98486.48
2023-06-29T05:18:55.361Z,98480.36
2023-06-29T05:21:38.867Z,98480.20
2023-06-29T05:24:12.466Z,98479.20
2023-06-29T05:26:56.472Z,98473.41
2023-06-29T05:29:30.666Z,98470.91
2023-06-29T05:32:14.605Z,98477.91
2023-06-29T05:34:47.438Z,98475.05
2023-06-29T05:37:31.147Z,98482.14
2023-06-29T05:40:14.569Z,98482.67
2023-06-29T05:42:47.176Z,98477.22
2023-06-29T05:45:31.980Z,98474.45
2023-06-29T05:48:05.016Z,98478.14
2023-06-29T05:50:39.087Z,98480.50
2023-06-29T05:53:13.398Z,98474.77
2023-06-29T05:55:56.577Z,98478.34
2023-06-29T05:58:30.640Z,98475.91
2023-06-29T06:01:15.207Z,98477.28
2023-06-29T06:04:00.842Z,98475.81
2023-06-29T06:06:43.682Z,98481.90
2023-06-29T06:09:16.775Z,98471.55
2023-06-29T06:11:59.602Z,98481.67
2023-06-29T06:14:32.810Z,98471.49
2023-06-29T06:17:16.989Z,98475.00
2023-06-29T06:19:49.855Z,98474.18
2023-06-29T06:22:33.766Z,98471.16
2023-06-29T06:25:06.820Z,98471.69
2023-06-29T06:27:51.888Z,98478.55
2023-06-29T06:30:41.036Z,98467.55
2023-06-29T06:33:15.586Z,98468.13
2023-06-29T06:35:58.657Z,98474.13
2023-06-29T06:38:50.245Z,98476.14
2023-06-29T06:41:18.097Z,98468.37
2023-06-29T06:44:03.565Z,98475.25
2023-06-29T06:46:47.988Z,98486.86
2023-06-29T06:49:22.051Z,98478.69
2023-06-29T06:51:55.238Z,98479.86
2023-06-29T06:54:39.674Z,98482.23
2023-06-29T06:57:23.219Z,98478.12
2023-06-29T06:59:56.768Z,98473.30
2023-06-29T07:02:41.414Z,98483.31
2023-06-29T07:05:14.736Z,98486.48
2023-06-29T07:07:57.666Z,98486.78
2023-06-29T07:10:31.727Z,98482.74
2023-06-29T07:13:05.389Z,98484.55
2023-06-29T07:15:50.369Z,98496.72
2023-06-29T07:18:40.549Z,98490.44
2023-06-29T07:26:31.514Z,98483.08
2023-06-29T07:29:06.058Z,98482.33
2023-06-29T07:31:49.227Z,98485.36
2023-06-29T07:34:24.313Z,98480.41
2023-06-29T07:37:10.147Z,98482.41
2023-06-29T07:39:54.903Z,98488.42
2023-06-29T07:42:41.224Z,98475.05
2023-06-29T07:45:15.036Z,98473.50
2023-06-29T07:47:47.416Z,98473.58
2023-06-29T07:50:51.105Z,98468.03
2023-06-29T07:53:24.150Z,98466.47
2023-06-29T07:56:06.742Z,98466.12
2023-06-29T07:58:53.461Z,98466.19
2023-06-29T08:01:42.574Z,98461.87
2023-06-29T08:07:02.585Z,98461.62
2023-06-29T08:09:48.439Z,98465.39
2023-06-29T08:12:32.384Z,98466.39
2023-06-29T08:15:05.541Z,98457.16
2023-06-29T08:17:49.748Z,98458.34
2023-06-29T08:20:24.149Z,98450.57
2023-06-29T08:23:08.647Z,98455.83
2023-06-29T08:25:41.145Z,98440.55
2023-06-29T08:28:25.214Z,98454.47
2023-06-29T08:30:57.996Z,98448.95
2023-06-29T08:33:42.748Z,98450.38
2023-06-29T08:36:15.522Z,98444.12
2023-06-29T08:38:57.935Z,98449.77
2023-06-29T08:41:42.852Z,98447.48
2023-06-29T08:44:16.517Z,98443.69
2023-06-29T08:47:03.485Z,98451.65
2023-06-29T08:49:50.006Z,98443.63
2023-06-29T08:52:35.094Z,98451.19
2023-06-29T08:55:08.832Z,98445.23
2023-06-29T08:57:56.131Z,98432.50
2023-06-29T09:00:42.297Z,98427.56
2023-06-29T09:03:15.568Z,98437.34
2023-06-29T09:05:49.167Z,98426.84
2023-06-29T09:08:35.458Z,98433.34
2023-06-29T09:11:08.186Z,98426.41
2023-06-29T09:13:52.138Z,98425.53
2023-06-29T09:16:29.414Z,98413.83
2023-06-29T09:19:16.025Z,98423.25
2023-06-29T09:21:50.461Z,98410.58
2023-06-29T09:24:43.714Z,98420.14
2023-06-29T09:27:23.879Z,98407.91
2023-06-29T09:29:58.110Z,98402.48
2023-06-29T09:32:42.909Z,98403.27
2023-06-29T09:35:27.541Z,98395.77
2023-06-29T09:38:04.615Z,98386.69
2023-06-29T09:40:51.107Z,98381.09
2023-06-29T09:43:29.392Z,98385.84
2023-06-29T09:46:14.415Z,98393.22
2023-06-29T09:51:36.062Z,98382.01
2023-06-29T09:54:15.798Z,98371.49
2023-06-29T09:57:00.024Z,98377.52
2023-06-29T09:59:46.861Z,98368.81
2023-06-29T10:02:31.586Z,98368.08
2023-06-29T10:05:16.293Z,98365.02
2023-06-29T10:07:49.671Z,98362.33
2023-06-29T10:10:37.054Z,98358.48
2023-06-29T10:13:28.247Z,98353.74
2023-06-29T10:16:03.991Z,98346.98
2023-06-29T10:18:49.458Z,98342.83
2023-06-29T10:21:36.002Z,98348.97
2023-06-29T10:24:09.782Z,98346.41
2023-06-29T10:27:12.187Z,98353.19
2023-06-29T10:29:47.284Z,98344.86
2023-06-29T10:32:34.626Z,98353.56
2023-06-29T10:35:13.202Z,98337.50
2023-06-29T10:37:59.275Z,98348.29
2023-06-29T10:40:32.883Z,98333.75
2023-06-29T10:43:19.215Z,98332.30
2023-06-29T10:45:51.792Z,98324.94
2023-06-29T10:48:47.067Z,98328.89
2023-06-29T10:51:16.125Z,98321.77
2023-06-29T10:53:52.425Z,98314.44
2023-06-29T10:56:39.449Z,98315.95
2023-06-29T10:59:13.279Z,98296.83
2023-06-29T11:02:02.224Z,98315.67
2023-06-29T11:04:35.946Z,98295.64
2023-06-29T11:07:21.491Z,98302.67
2023-06-29T11:10:07.923Z,98306.38
2023-06-29T11:12:42.318Z,98307.78
2023-06-29T11:15:29.485Z,98313.54
2023-06-29T11:18:06.690Z,98305.63
2023-06-29T11:20:49.992Z,98311.30
2023-06-29T11:23:24.391Z,98313.97
2023-06-29T11:26:09.007Z,98328.50
2023-06-29T11:28:56.770Z,98328.22
2023-06-29T11:31:41.458Z,98321.77
2023-06-29T11:34:18.582Z,98322.52
2023-06-29T11:39:38.096Z,98337.23
2023-06-29T11:42:11.698Z,98326.91
2023-06-29T11:45:09.577Z,98341.11
2023-06-29T11:47:57.668Z,98335.84
2023-06-29T11:50:43.036Z,98352.63
2023-06-29T11:53:18.645Z,98349.89
2023-06-29T11:56:03.634Z,98357.95
2023-06-29T11:58:37.350Z,98371.84
2023-06-29T12:01:22.832Z,98420.14
2023-06-29T12:03:56.664Z,98445.17
2023-06-29T12:06:29.251Z,98444.04
2023-06-29T12:09:14.674Z,98445.97
2023-06-29T12:11:49.302Z,98448.80
2023-06-29T12:14:35.980Z,98465.92
2023-06-29T12:20:10.525Z,98450.25
2023-06-29T12:22:37.107Z,98441.10
2023-06-29T12:25:16.032Z,98436.74
2023-06-29T12:28:05.287Z,98431.52
2023-06-29T12:30:38.631Z,98418.66
2023-06-29T12:33:13.766Z,98423.59
2023-06-29T12:35:59.235Z,98433.32
2023-06-29T12:38:32.261Z,98422.70
2023-06-29T12:41:16.017Z,98427.02
2023-06-29T12:43:50.774Z,98407.03
2023-06-29T12:46:34.791Z,98396.86
2023-06-29T12:49:08.955Z,98391.66
2023-06-29T12:51:52.839Z,98367.55
2023-06-29T12:54:36.823Z,98369.45
2023-06-29T12:57:10.348Z,98372.27
2023-06-29T12:59:57.236Z,98368.79
2023-06-29T13:02:42.727Z,98376.39
2023-06-29T13:05:17.741Z,98367.54
2023-06-29T13:08:00.316Z,98369.94
2023-06-29T13:10:34.693Z,98359.98
2023-06-29T13:13:17.924Z,98358.87
2023-06-29T13:16:01.418Z,98368.74
2023-06-29T13:18:46.181Z,98358.53
2023-06-29T13:21:19.081Z,98354.06
2023-06-29T13:24:08.712Z,98357.48
2023-06-29T13:26:42.135Z,98346.20
2023-06-29T13:29:26.108Z,98353.53
2023-06-29T13:31:59.502Z,98349.39
2023-06-29T13:34:43.558Z,98356.00
2023-06-29T13:37:17.332Z,98355.51
2023-06-29T13:40:00.085Z,98361.47
2023-06-29T13:42:43.465Z,98357.16
2023-06-29T13:45:15.998Z,98363.16
2023-06-29T13:48:01.546Z,98374.25
2023-06-29T13:50:46.263Z,98387.56
2023-06-29T13:53:18.983Z,98385.29
2023-06-29T13:56:01.318Z,98388.75
2023-06-29T13:58:45.231Z,98383.64
2023-06-29T14:01:18.392Z,98382.30
2023-06-29T14:04:02.516Z,98387.27
2023-06-29T14:06:38.002Z,98386.11
2023-06-29T14:09:20.879Z,98383.80
2023-06-29T14:11:53.788Z,98384.28
2023-06-29T14:14:37.233Z,98399.04
2023-06-29T14:17:22.252Z,98403.20
2023-06-29T14:20:05.725Z,98411.36
2023-06-29T14:22:50.389Z,98424.02
2023-06-29T14:25:24.524Z,98437.97
2023-06-29T14:28:08.497Z,98428.67
2023-06-29T14:30:51.114Z,98407.97
2023-06-29T14:33:28.819Z,98420.75
2023-06-29T14:36:10.107Z,98414.82
2023-06-29T14:38:43.067Z,98391.27
2023-06-29T14:41:27.190Z,98398.13
2023-06-29T14:44:00.042Z,98388.31
2023-06-29T14:46:32.492Z,98376.74
2023-06-29T14:49:18.609Z,98369.89
2023-06-29T14:51:51.417Z,98371.28
2023-06-29T14:54:35.407Z,98361.47
2023-06-29T14:57:08.146Z,98362.67
2023-06-29T14:59:50.922Z,98364.00
2023-06-29T15:02:33.711Z,98350.22
2023-06-29T15:05:06.692Z,98356.78
2023-06-29T15:07:49.238Z,98360.06
2023-06-29T15:10:21.707Z,98353.85
2023-06-29T15:12:54.513Z,98349.73
2023-06-29T15:15:27.519Z,98336.95
2023-06-29T15:18:09.721Z,98327.23
2023-06-29T15:20:42.953Z,98318.52
2023-06-29T15:23:28.273Z,98341.98
2023-06-29T15:26:01.647Z,98341.92
2023-06-29T15:28:45.123Z,98348.64
2023-06-29T15:31:18.388Z,98350.56
2023-06-29T15:34:02.734Z,98351.16
2023-06-29T15:36:36.000Z,98346.13
2023-06-29T15:39:19.043Z,98341.36
2023-06-29T15:41:52.400Z,98338.17
2023-06-29T15:44:37.308Z,98345.02
2023-06-29T15:47:22.124Z,98342.37
2023-06-29T15:49:55.610Z,98332.03
2023-06-29T15:52:29.075Z,98333.38
2023-06-29T15:55:14.115Z,98328.77
2023-06-29T15:57:49.018Z,98320.61
2023-06-29T16:00:32.863Z,98309.16
2023-06-29T16:03:17.895Z,98315.81
2023-06-29T16:06:02.256Z,98314.47
2023-06-29T16:08:35.268Z,98316.09
2023-06-29T16:11:19.937Z,98327.28
2023-06-29T16:13:54.355Z,98319.93
2023-06-29T16:16:39.803Z,98323.45
2023-06-29T16:19:15.315Z,98318.93
2023-06-29T16:22:01.449Z,98325.95
2023-06-29T16:24:34.769Z,98322.27
2023-06-29T16:27:18.966Z,98317.78
2023-06-29T16:29:51.684Z,98312.96
2023-06-29T16:32:25.484Z,98309.13
2023-06-29T16:35:11.320Z,98315.31
2023-06-29T16:37:45.728Z,98305.41
2023-06-29T16:40:30.747Z,98306.64
2023-06-29T16:43:03.765Z,98305.04
2023-06-29T16:45:36.923Z,98295.31
2023-06-29T16:48:22.606Z,98299.67
2023-06-29T16:50:55.548Z,98295.47
2023-06-29T16:53:29.098Z,98290.48
2023-06-29T16:56:14.228Z,98288.88
2023-06-29T16:58:47.587Z,98291.48
2023-06-29T17:01:33.232Z,98293.50
2023-06-29T17:04:06.290Z,98292.64
2023-06-29T17:06:49.307Z,98294.17
2023-06-29T17:09:21.987Z,98293.45
2023-06-29T17:12:05.269Z,98301.80
2023-06-29T17:14:39.326Z,98294.77
2023-06-29T17:17:23.399Z,98290.84
2023-06-29T17:20:08.917Z,98292.16
2023-06-29T17:22:42.198Z,98288.59
2023-06-29T17:25:26.609Z,98279.68
2023-06-29T17:28:00.551Z,98275.11
2023-06-29T17:34:24.585Z,98277.51
2023-06-29T17:36:59.178Z,98263.59
2023-06-29T17:39:43.216Z,98257.84
2023-06-29T17:42:23.998Z,98257.75
2023-06-29T17:45:10.090Z,98260.47
2023-06-29T17:47:42.845Z,98258.72
2023-06-29T17:50:28.235Z,98271.05
2023-06-29T17:53:00.870Z,98268.59
2023-06-29T17:55:33.253Z,98271.89
2023-06-29T17:58:05.689Z,98267.89
2023-06-29T18:00:48.033Z,98281.08
2023-06-29T18:03:21.191Z,98271.34
2023-06-29T18:05:55.690Z,98273.30
2023-06-29T18:08:40.533Z,98280.53
2023-06-29T18:11:22.812Z,98280.14
2023-06-29T18:13:55.553Z,98276.28
2023-06-29T18:16:40.459Z,98277.23
2023-06-29T18:19:22.969Z,98291.64
2023-06-29T18:21:55.747Z,98277.40
2023-06-29T18:24:39.856Z,98286.14
2023-06-29T18:27:12.444Z,98286.83
2023-06-29T18:29:56.684Z,98290.09
2023-06-29T18:32:29.626Z,98282.64
2023-06-29T18:35:13.583Z,98284.44
2023-06-29T18:37:56.040Z,98288.59
2023-06-29T18:40:29.714Z,98277.88
2023-06-29T18:43:15.100Z,98278.03
2023-06-29T18:45:58.874Z,98281.03
2023-06-29T18:48:41.344Z,98282.23
2023-06-29T18:51:13.920Z,98272.89
2023-06-29T18:53:57.890Z,98281.13
2023-06-29T18:56:30.613Z,98288.99
2023-06-29T18:59:15.811Z,98293.73
2023-06-29T19:01:48.484Z,98275.23
2023-06-29T19:04:33.748Z,98279.70
2023-06-29T19:07:17.866Z,98281.20
2023-06-29T19:10:02.358Z,98275.55
2023-06-29T19:12:35.148Z,98270.36
2023-06-29T19:15:20.743Z,98276.58
2023-06-29T19:17:53.332Z,98265.09
2023-06-29T19:20:37.394Z,98267.99
2023-06-29T19:23:10.124Z,98265.59
2023-06-29T19:25:43.136Z,98265.59
2023-06-29T19:28:27.618Z,98270.30
2023-06-29T19:31:00.452Z,98269.08
2023-06-29T19:33:44.394Z,98274.64
2023-06-29T19:36:17.181Z,98268.09
2023-06-29T19:38:59.958Z,98266.83
2023-06-29T19:41:33.005Z,98269.74
2023-06-29T19:44:15.435Z,98271.83
2023-06-29T19:47:00.242Z,98280.75
2023-06-29T19:49:33.129Z,98277.85
2023-06-29T19:52:17.596Z,98285.41
2023-06-29T19:54:50.475Z,98274.89
2023-06-29T19:57:35.062Z,98277.82
2023-06-29T20:00:09.528Z,98278.05
2023-06-29T20:03:05.854Z,98280.66
2023-06-29T20:05:38.496Z,98271.42
2023-06-29T20:08:22.734Z,98273.54
2023-06-29T20:10:55.232Z,98268.77
2023-06-29T20:13:39.165Z,98265.73
2023-06-29T20:16:11.640Z,98272.11
2023-06-29T20:18:55.880Z,98275.19
2023-06-29T20:21:28.931Z,98267.30
2023-06-29T20:24:14.728Z,98263.13
2023-06-29T20:26:48.417Z,98260.38
2023-06-29T20:29:32.590Z,98248.84
2023-06-29T20:32:17.101Z,98249.50
2023-06-29T20:34:49.931Z,98252.47
2023-06-29T20:37:32.408Z,98247.20
2023-06-29T20:40:16.569Z,98250.19
2023-06-29T20:42:49.328Z,98244.02
2023-06-29T20:45:31.456Z,98244.21
2023-06-29T20:48:14.336Z,98243.89
2023-06-29T20:50:46.739Z,98235.09
2023-06-29T20:53:31.971Z,98235.44
2023-06-29T20:56:04.950Z,98240.21
2023-06-29T20:58:47.799Z,98242.56
2023-06-29T21:01:20.754Z,98241.05
2023-06-29T21:04:10.685Z,98245.38
2023-06-29T21:06:53.051Z,98241.91
2023-06-29T21:09:25.706Z,98244.71
2023-06-29T21:12:10.870Z,98247.03
2023-06-29T21:14:44.297Z,98253.68
2023-06-29T21:17:26.803Z,98254.52
2023-06-29T21:19:59.760Z,98253.47
2023-06-29T21:22:45.591Z,98240.59
2023-06-29T21:25:28.850Z,98242.72
2023-06-29T21:28:01.642Z,98245.02
2023-06-29T21:30:37.613Z,98247.33
2023-06-29T21:33:23.306Z,98245.20
2023-06-29T21:36:07.635Z,98236.59
2023-06-29T21:38:51.305Z,98238.06
2023-06-29T21:41:23.879Z,98240.30
2023-06-29T21:44:06.289Z,98240.18
2023-06-29T21:46:39.163Z,98232.47
2023-06-29T21:49:23.843Z,98242.85
2023-06-29T21:52:09.973Z,98239.02
2023-06-29T21:54:43.026Z,98242.34
2023-06-29T21:57:44.983Z,98240.30
2023-06-29T22:00:18.277Z,98234.60
2023-06-29T22:02:59.744Z,98237.33
2023-06-29T22:05:44.526Z,98238.30
2023-06-29T22:08:23.187Z,98233.91
2023-06-29T22:11:06.369Z,98232.66
2023-06-29T22:13:39.195Z,98236.53
2023-06-29T22:16:21.852Z,98234.97
2023-06-29T22:18:54.473Z,98225.62
2023-06-29T22:21:37.410Z,98237.47
2023-06-29T22:24:21.154Z,98233.81
2023-06-29T22:26:53.570Z,98234.38
2023-06-29T22:29:37.325Z,98229.31
2023-06-29T22:32:19.748Z,98232.66
2023-06-29T22:35:05.337Z,98223.69
2023-06-29T22:37:37.825Z,98215.34
2023-06-29T22:40:21.769Z,98219.08
2023-06-29T22:42:54.556Z,98207.23
2023-06-29T22:45:36.911Z,98209.11
2023-06-29T22:48:09.841Z,98204.58
2023-06-29T22:50:43.298Z,98204.73
2023-06-29T22:53:26.634Z,98207.77
2023-06-29T22:55:59.282Z,98202.55
2023-06-29T22:58:43.794Z,98207.44
2023-06-29T23:01:26.498Z,98207.59
2023-06-29T23:03:59.092Z,98201.41
2023-06-29T23:06:41.960Z,98204.29
2023-06-29T23:09:14.626Z,98195.10
2023-06-29T23:12:00.149Z,98193.52
2023-06-29T23:14:44.273Z,98191.67
2023-06-29T23:17:28.318Z,98192.84
2023-06-29T23:20:14.465Z,98195.48
2023-06-29T23:22:47.337Z,98191.02
2023-06-29T23:25:33.185Z,98197.47
2023-06-29T23:28:05.970Z,98184.94
2023-06-29T23:30:48.730Z,98185.52
2023-06-29T23:33:31.333Z,98181.69
2023-06-29T23:36:04.387Z,98180.75
2023-06-29T23:38:51.444Z,98180.50
2023-06-29T23:41:28.095Z,98186.55
2023-06-29T23:44:06.634Z,98182.13
2023-06-29T23:46:50.987Z,98173.39
2023-06-29T23:49:38.571Z,98172.86
2023-06-29T23:52:11.549Z,98180.83
2023-06-29T23:54:56.366Z,98180.78
2023-06-29T23:57:28.965Z,98180.53
